createdAt,value
2022-10-09T00:00:59.580Z,1002.99
2022-10-09T00:01:59.621Z,1003.00
2022-10-09T00:02:59.569Z,1003.03
2022-10-09T00:03:59.575Z,1003.01
2022-10-09T00:04:59.595Z,1003.02
2022-10-09T00:05:59.562Z,1003.07
2022-10-09T00:06:59.554Z,1003.01
2022-10-09T00:07:59.538Z,1003.04
2022-10-09T00:08:59.530Z,1003.00
2022-10-09T00:09:59.527Z,1003.09
2022-10-09T00:10:59.523Z,1003.09
2022-10-09T00:11:59.519Z,1003.08
2022-10-09T00:12:59.500Z,1003.05
2022-10-09T00:13:59.496Z,1003.14
2022-10-09T00:14:59.493Z,1003.11
2022-10-09T00:15:59.492Z,1003.08
2022-10-09T00:16:59.715Z,1003.08
2022-10-09T00:17:59.484Z,1003.10
2022-10-09T00:18:59.474Z,1003.05
2022-10-09T00:19:59.463Z,1003.09
2022-10-09T00:20:59.456Z,1003.08
2022-10-09T00:21:59.467Z,1003.07
2022-10-09T00:22:59.435Z,1003.09
2022-10-09T00:23:59.428Z,1003.14
2022-10-09T00:24:59.436Z,1003.13
2022-10-09T00:25:59.432Z,1003.12
2022-10-09T00:26:59.419Z,1003.14
2022-10-09T00:27:59.432Z,1003.11
2022-10-09T00:28:59.515Z,1003.09
2022-10-09T00:29:59.396Z,1003.09
2022-10-09T00:30:59.481Z,1003.16
2022-10-09T00:31:59.404Z,1003.16
2022-10-09T00:32:59.382Z,1003.14
2022-10-09T00:33:59.380Z,1003.13
2022-10-09T00:34:59.364Z,1003.15
2022-10-09T00:35:59.356Z,1003.09
2022-10-09T00:36:59.356Z,1003.11
2022-10-09T00:37:59.347Z,1003.14
2022-10-09T00:38:59.344Z,1003.22
2022-10-09T00:39:59.333Z,1003.20
2022-10-09T00:40:59.324Z,1003.18
2022-10-09T00:41:59.333Z,1003.21
2022-10-09T00:42:59.314Z,1003.16
2022-10-09T00:43:59.347Z,1003.24
2022-10-09T00:44:59.299Z,1003.23
2022-10-09T00:45:59.314Z,1003.23
2022-10-09T00:46:59.296Z,1003.20
2022-10-09T00:47:59.284Z,1003.17
2022-10-09T00:48:59.292Z,1003.15
2022-10-09T00:49:59.280Z,1003.13
2022-10-09T00:50:59.260Z,1003.15
2022-10-09T00:51:59.255Z,1003.12
2022-10-09T00:52:59.255Z,1003.14
2022-10-09T00:53:59.243Z,1003.09
2022-10-09T00:54:59.247Z,1003.12
2022-10-09T00:55:59.226Z,1003.13
2022-10-09T00:56:59.219Z,1003.15
2022-10-09T00:57:59.206Z,1003.15
2022-10-09T00:58:59.207Z,1003.13
2022-10-09T00:59:59.211Z,1003.14
2022-10-09T01:00:59.238Z,1003.14
2022-10-09T01:01:59.295Z,1003.14
2022-10-09T01:02:59.200Z,1003.14
2022-10-09T01:03:59.177Z,1003.21
2022-10-09T01:04:59.171Z,1003.16
2022-10-09T01:05:59.160Z,1003.16
2022-10-09T01:06:59.156Z,1003.18
2022-10-09T01:07:59.164Z,1003.18
2022-10-09T01:08:59.135Z,1003.24
2022-10-09T01:09:59.136Z,1003.19
2022-10-09T01:10:59.134Z,1003.19
2022-10-09T01:11:59.130Z,1003.18
2022-10-09T01:12:59.115Z,1003.11
2022-10-09T01:13:59.127Z,1003.16
2022-10-09T01:14:59.135Z,1003.14
2022-10-09T01:15:59.164Z,1003.17
2022-10-09T01:16:59.095Z,1003.15
2022-10-09T01:17:59.088Z,1003.12
2022-10-09T01:18:59.079Z,1003.15
2022-10-09T01:19:59.084Z,1003.14
2022-10-09T01:20:59.075Z,1003.09
2022-10-09T01:21:59.061Z,1003.09
2022-10-09T01:22:59.055Z,1003.11
2022-10-09T01:23:59.055Z,1003.11
2022-10-09T01:24:59.043Z,1003.08
2022-10-09T01:25:59.055Z,1003.12
2022-10-09T01:26:59.024Z,1003.08
2022-10-09T01:27:59.031Z,1003.07
2022-10-09T01:28:59.015Z,1003.07
2022-10-09T01:29:59.008Z,1003.09
2022-10-09T01:30:59.058Z,1003.12
2022-10-09T01:31:58.995Z,1003.04
2022-10-09T01:32:59.010Z,1003.08
2022-10-09T01:33:58.987Z,1003.04
2022-10-09T01:34:58.985Z,1003.12
2022-10-09T01:35:58.984Z,1003.12
2022-10-09T01:36:58.991Z,1003.05
2022-10-09T01:37:58.967Z,1003.05
2022-10-09T01:38:58.956Z,1003.14
2022-10-09T01:39:58.951Z,1003.12
2022-10-09T01:40:58.946Z,1003.09
2022-10-09T01:41:58.959Z,1003.07
2022-10-09T01:42:59.125Z,1003.05
2022-10-09T01:43:58.923Z,1003.06
2022-10-09T01:44:58.924Z,1003.04
2022-10-09T01:45:58.946Z,1003.02
2022-10-09T01:46:58.899Z,1003.06
2022-10-09T01:47:58.912Z,1003.04
2022-10-09T01:48:58.885Z,1003.06
2022-10-09T01:49:58.885Z,1003.09
2022-10-09T01:50:58.879Z,1003.05
2022-10-09T01:51:58.871Z,1003.07
2022-10-09T01:52:58.867Z,1003.04
2022-10-09T01:53:58.862Z,1003.07
2022-10-09T01:54:58.854Z,1003.00
2022-10-09T01:55:58.846Z,1003.00
2022-10-09T01:56:58.834Z,1002.99
2022-10-09T01:57:58.830Z,1002.97
2022-10-09T01:58:59.831Z,1003.03
2022-10-09T01:59:58.811Z,1002.96
2022-10-09T02:00:58.815Z,1002.95
2022-10-09T02:01:58.925Z,1002.91
2022-10-09T02:02:58.832Z,1002.99
2022-10-09T02:03:58.814Z,1002.96
2022-10-09T02:04:58.793Z,1002.99
2022-10-09T02:05:58.783Z,1002.97
2022-10-09T02:06:58.775Z,1002.97
2022-10-09T02:07:58.770Z,1002.94
2022-10-09T02:08:58.778Z,1002.99
2022-10-09T02:09:58.758Z,1002.92
2022-10-09T02:10:58.752Z,1002.99
2022-10-09T02:11:58.762Z,1002.92
2022-10-09T02:12:58.741Z,1002.99
2022-10-09T02:13:58.735Z,1002.98
2022-10-09T02:14:58.747Z,1002.96
2022-10-09T02:15:58.763Z,1002.99
2022-10-09T02:16:58.744Z,1002.99
2022-10-09T02:17:58.703Z,1003.00
2022-10-09T02:18:58.704Z,1003.02
2022-10-09T02:19:58.695Z,1003.10
2022-10-09T02:20:58.691Z,1003.01
2022-10-09T02:21:58.683Z,1003.07
2022-10-09T02:22:58.699Z,1003.03
2022-10-09T02:23:58.665Z,1003.02
2022-10-09T02:24:58.660Z,1003.01
2022-10-09T02:25:58.655Z,1003.02
2022-10-09T02:26:58.642Z,1003.08
2022-10-09T02:27:58.656Z,1003.00
2022-10-09T02:28:58.631Z,1003.03
2022-10-09T02:29:58.617Z,1003.02
2022-10-09T02:30:58.706Z,1003.04
2022-10-09T02:31:58.612Z,1003.03
2022-10-09T02:32:58.647Z,1003.00
2022-10-09T02:33:58.655Z,1003.06
2022-10-09T02:34:58.598Z,1003.00
2022-10-09T02:35:58.576Z,1003.05
2022-10-09T02:36:58.577Z,1003.01
2022-10-09T02:37:58.567Z,1003.01
2022-10-09T02:38:58.576Z,1003.05
2022-10-09T02:39:58.543Z,1003.06
2022-10-09T02:40:58.544Z,1002.98
2022-10-09T02:41:58.528Z,1003.00
2022-10-09T02:42:58.534Z,1003.00
2022-10-09T02:43:58.527Z,1003.01
2022-10-09T02:44:58.527Z,1003.03
2022-10-09T02:45:58.575Z,1003.04
2022-10-09T02:46:58.506Z,1003.02
2022-10-09T02:47:58.503Z,1002.99
2022-10-09T02:48:58.495Z,1003.04
2022-10-09T02:49:58.506Z,1003.03
2022-10-09T02:50:58.478Z,1002.98
2022-10-09T02:51:58.474Z,1002.97
2022-10-09T02:52:58.468Z,1003.04
2022-10-09T02:53:58.508Z,1002.97
2022-10-09T02:54:58.459Z,1003.07
2022-10-09T02:55:58.501Z,1003.13
2022-10-09T02:56:58.454Z,1003.09
2022-10-09T02:57:58.658Z,1003.12
2022-10-09T02:58:58.431Z,1003.13
2022-10-09T02:59:58.442Z,1003.17
2022-10-09T03:00:58.443Z,1003.10
2022-10-09T03:01:58.527Z,1003.16
2022-10-09T03:02:58.622Z,1003.19
2022-10-09T03:03:58.402Z,1003.21
2022-10-09T03:04:58.394Z,1003.22
2022-10-09T03:05:58.439Z,1003.21
2022-10-09T03:06:58.534Z,1003.23
2022-10-09T03:07:58.391Z,1003.15
2022-10-09T03:08:58.370Z,1003.15
2022-10-09T03:09:58.369Z,1003.18
2022-10-09T03:10:58.371Z,1003.16
2022-10-09T03:11:58.359Z,1003.21
2022-10-09T03:12:58.338Z,1003.10
2022-10-09T03:13:58.333Z,1003.16
2022-10-09T03:14:58.330Z,1003.13
2022-10-09T03:15:58.380Z,1003.13
2022-10-09T03:16:58.306Z,1003.10
2022-10-09T03:17:58.314Z,1003.09
2022-10-09T03:18:58.302Z,1003.14
2022-10-09T03:19:58.294Z,1003.09
2022-10-09T03:20:58.290Z,1003.08
2022-10-09T03:21:58.425Z,1003.10
2022-10-09T03:22:58.291Z,1003.09
2022-10-09T03:23:58.284Z,1003.18
2022-10-09T03:24:58.269Z,1003.16
2022-10-09T03:25:58.266Z,1003.14
2022-10-09T03:26:58.257Z,1003.13
2022-10-09T03:27:58.266Z,1003.17
2022-10-09T03:28:58.241Z,1003.15
2022-10-09T03:29:58.236Z,1003.12
2022-10-09T03:30:58.267Z,1003.09
2022-10-09T03:31:58.311Z,1003.11
2022-10-09T03:32:58.234Z,1003.10
2022-10-09T03:33:58.202Z,1003.11
2022-10-09T03:34:58.197Z,1003.07
2022-10-09T03:35:58.205Z,1003.14
2022-10-09T03:36:58.186Z,1003.08
2022-10-09T03:37:58.257Z,1003.09
2022-10-09T03:38:58.306Z,1003.06
2022-10-09T03:39:58.303Z,1003.10
2022-10-09T03:40:58.246Z,1003.17
2022-10-09T03:41:58.259Z,1003.14
2022-10-09T03:42:58.354Z,1003.12
2022-10-09T03:43:58.182Z,1003.16
2022-10-09T03:44:58.129Z,1003.24
2022-10-09T03:46:00.992Z,1003.20
2022-10-09T03:46:59.228Z,1003.22
2022-10-09T03:47:58.114Z,1003.22
2022-10-09T03:48:58.121Z,1003.23
2022-10-09T03:49:58.104Z,1003.20
2022-10-09T03:50:58.093Z,1003.28
2022-10-09T03:51:58.082Z,1003.18
2022-10-09T03:52:58.089Z,1003.12
2022-10-09T03:53:58.072Z,1003.19
2022-10-09T03:54:58.072Z,1003.17
2022-10-09T03:55:58.069Z,1003.16
2022-10-09T03:56:58.060Z,1003.22
2022-10-09T03:57:58.053Z,1003.22
2022-10-09T03:58:58.063Z,1003.28
2022-10-09T03:59:58.033Z,1003.29
2022-10-09T04:00:58.064Z,1003.23
2022-10-09T04:01:58.022Z,1003.21
2022-10-09T04:02:58.076Z,1003.21
2022-10-09T04:03:58.024Z,1003.24
2022-10-09T04:04:57.998Z,1003.24
2022-10-09T04:05:58.033Z,1003.25
2022-10-09T04:06:57.999Z,1003.27
2022-10-09T04:07:57.994Z,1003.22
2022-10-09T04:08:57.973Z,1003.29
2022-10-09T04:09:57.971Z,1003.32
2022-10-09T04:10:57.966Z,1003.30
2022-10-09T04:11:57.954Z,1003.35
2022-10-09T04:12:57.973Z,1003.33
2022-10-09T04:13:57.934Z,1003.33
2022-10-09T04:14:58.941Z,1003.38
2022-10-09T04:15:57.996Z,1003.38
2022-10-09T04:16:57.922Z,1003.35
2022-10-09T04:17:57.917Z,1003.40
2022-10-09T04:18:57.926Z,1003.35
2022-10-09T04:19:57.907Z,1003.33
2022-10-09T04:20:57.894Z,1003.36
2022-10-09T04:21:57.896Z,1003.36
2022-10-09T04:22:57.887Z,1003.33
2022-10-09T04:23:57.879Z,1003.35
2022-10-09T04:24:57.866Z,1003.35
2022-10-09T04:25:57.862Z,1003.33
2022-10-09T04:26:57.850Z,1003.40
2022-10-09T04:27:57.873Z,1003.32
2022-10-09T04:28:58.881Z,1003.33
2022-10-09T04:29:57.839Z,1003.31
2022-10-09T04:30:57.825Z,1003.36
2022-10-09T04:31:57.850Z,1003.32
2022-10-09T04:32:57.805Z,1003.32
2022-10-09T04:33:57.809Z,1003.34
2022-10-09T04:34:57.790Z,1003.33
2022-10-09T04:35:57.794Z,1003.29
2022-10-09T04:36:57.796Z,1003.25
2022-10-09T04:37:57.770Z,1003.29
2022-10-09T04:38:57.761Z,1003.31
2022-10-09T04:39:57.763Z,1003.29
2022-10-09T04:40:57.753Z,1003.28
2022-10-09T04:41:57.763Z,1003.30
2022-10-09T04:42:57.742Z,1003.27
2022-10-09T04:43:57.741Z,1003.27
2022-10-09T04:44:57.730Z,1003.30
2022-10-09T04:45:57.756Z,1003.24
2022-10-09T04:46:57.709Z,1003.26
2022-10-09T04:47:57.709Z,1003.20
2022-10-09T04:48:57.706Z,1003.25
2022-10-09T04:49:57.689Z,1003.24
2022-10-09T04:50:57.691Z,1003.23
2022-10-09T04:51:57.682Z,1003.20
2022-10-09T04:52:57.673Z,1003.17
2022-10-09T04:54:00.620Z,1003.18
2022-10-09T04:54:58.662Z,1003.16
2022-10-09T04:55:57.661Z,1003.19
2022-10-09T04:56:57.653Z,1003.17
2022-10-09T04:57:57.639Z,1003.17
2022-10-09T04:58:57.636Z,1003.14
2022-10-09T04:59:57.634Z,1003.17
2022-10-09T05:00:57.675Z,1003.17
2022-10-09T05:01:57.690Z,1003.18
2022-10-09T05:02:57.609Z,1003.15
2022-10-09T05:03:57.649Z,1003.19
2022-10-09T05:04:57.596Z,1003.17
2022-10-09T05:05:57.597Z,1003.20
2022-10-09T05:06:57.577Z,1003.18
2022-10-09T05:07:57.576Z,1003.23
2022-10-09T05:08:57.570Z,1003.24
2022-10-09T05:09:57.573Z,1003.13
2022-10-09T05:10:57.570Z,1003.17
2022-10-09T05:11:57.558Z,1003.19
2022-10-09T05:12:57.545Z,1003.16
2022-10-09T05:13:57.534Z,1003.12
2022-10-09T05:14:57.531Z,1003.15
2022-10-09T05:15:57.592Z,1003.15
2022-10-09T05:17:12.945Z,1003.16
2022-10-09T05:17:59.524Z,1003.13
2022-10-09T05:18:57.498Z,1003.15
2022-10-09T05:19:57.504Z,1003.15
2022-10-09T05:20:57.514Z,1003.13
2022-10-09T05:21:57.507Z,1003.15
2022-10-09T05:22:57.486Z,1003.18
2022-10-09T05:23:57.477Z,1003.15
2022-10-09T05:24:57.490Z,1003.15
2022-10-09T05:25:57.489Z,1003.16
2022-10-09T05:26:57.457Z,1003.16
2022-10-09T05:27:57.454Z,1003.17
2022-10-09T05:28:57.453Z,1003.13
2022-10-09T05:29:57.442Z,1003.18
2022-10-09T05:30:57.437Z,1003.16
2022-10-09T05:31:57.534Z,1003.16
2022-10-09T05:32:57.417Z,1003.22
2022-10-09T05:33:57.413Z,1003.19
2022-10-09T05:34:57.406Z,1003.17
2022-10-09T05:35:57.424Z,1003.21
2022-10-09T05:36:57.398Z,1003.18
2022-10-09T05:37:57.389Z,1003.26
2022-10-09T05:38:57.381Z,1003.20
2022-10-09T05:39:57.413Z,1003.24
2022-10-09T05:40:58.381Z,1003.23
2022-10-09T05:41:57.357Z,1003.23
2022-10-09T05:42:57.357Z,1003.24
2022-10-09T05:43:57.351Z,1003.23
2022-10-09T05:44:57.371Z,1003.17
2022-10-09T05:45:57.415Z,1003.18
2022-10-09T05:46:57.329Z,1003.21
2022-10-09T05:47:57.322Z,1003.16
2022-10-09T05:48:57.317Z,1003.21
2022-10-09T05:49:57.313Z,1003.19
2022-10-09T05:50:57.333Z,1003.17
2022-10-09T05:51:57.309Z,1003.20
2022-10-09T05:52:57.290Z,1003.19
2022-10-09T05:53:57.282Z,1003.17
2022-10-09T05:54:57.265Z,1003.18
2022-10-09T05:56:01.537Z,1003.15
2022-10-09T05:56:59.302Z,1003.13
2022-10-09T05:57:57.249Z,1003.25
2022-10-09T05:58:57.242Z,1003.17
2022-10-09T05:59:57.237Z,1003.22
2022-10-09T06:00:57.256Z,1003.20
2022-10-09T06:01:57.295Z,1003.21
2022-10-09T06:02:57.383Z,1003.16
2022-10-09T06:03:57.206Z,1003.17
2022-10-09T06:04:57.202Z,1003.14
2022-10-09T06:05:57.190Z,1003.18
2022-10-09T06:06:57.197Z,1003.20
2022-10-09T06:07:57.197Z,1003.19
2022-10-09T06:08:57.177Z,1003.16
2022-10-09T06:09:57.165Z,1003.21
2022-10-09T06:10:57.161Z,1003.20
2022-10-09T06:11:57.153Z,1003.23
2022-10-09T06:12:57.157Z,1003.22
2022-10-09T06:13:57.141Z,1003.18
2022-10-09T06:14:57.137Z,1003.26
2022-10-09T06:15:57.128Z,1003.24
2022-10-09T06:16:57.152Z,1003.27
2022-10-09T06:17:57.132Z,1003.28
2022-10-09T06:18:57.105Z,1003.35
2022-10-09T06:19:57.097Z,1003.35
2022-10-09T06:20:57.096Z,1003.34
2022-10-09T06:21:57.081Z,1003.34
2022-10-09T06:22:57.105Z,1003.36
2022-10-09T06:23:57.081Z,1003.38
2022-10-09T06:24:57.062Z,1003.36
2022-10-09T06:25:57.048Z,1003.40
2022-10-09T06:26:57.066Z,1003.38
2022-10-09T06:27:57.048Z,1003.37
2022-10-09T06:28:57.050Z,1003.36
2022-10-09T06:29:57.037Z,1003.39
2022-10-09T06:30:57.053Z,1003.45
2022-10-09T06:31:57.019Z,1003.38
2022-10-09T06:32:57.011Z,1003.40
2022-10-09T06:33:57.026Z,1003.43
2022-10-09T06:34:56.999Z,1003.42
2022-10-09T06:36:05.615Z,1003.41
2022-10-09T06:36:58.991Z,1003.42
2022-10-09T06:37:56.975Z,1003.33
2022-10-09T06:38:56.992Z,1003.38
2022-10-09T06:39:56.971Z,1003.41
2022-10-09T06:40:56.966Z,1003.40
2022-10-09T06:41:56.944Z,1003.38
2022-10-09T06:42:56.956Z,1003.34
2022-10-09T06:43:56.964Z,1003.46
2022-10-09T06:44:56.937Z,1003.43
2022-10-09T06:45:56.959Z,1003.39
2022-10-09T06:46:56.933Z,1003.39
2022-10-09T06:47:56.927Z,1003.37
2022-10-09T06:48:56.911Z,1003.42
2022-10-09T06:49:56.915Z,1003.42
2022-10-09T06:50:56.898Z,1003.38
2022-10-09T06:51:56.901Z,1003.43
2022-10-09T06:52:56.899Z,1003.38
2022-10-09T06:53:56.883Z,1003.43
2022-10-09T06:54:56.867Z,1003.43
2022-10-09T06:55:56.883Z,1003.41
2022-10-09T06:56:56.851Z,1003.39
2022-10-09T06:57:56.867Z,1003.45
2022-10-09T06:58:56.831Z,1003.48
2022-10-09T06:59:56.841Z,1003.48
2022-10-09T07:00:56.862Z,1003.53
2022-10-09T07:01:57.073Z,1003.54
2022-10-09T07:02:56.923Z,1003.57
2022-10-09T07:03:56.827Z,1003.52
2022-10-09T07:04:56.827Z,1003.51
2022-10-09T07:05:56.799Z,1003.50
2022-10-09T07:06:56.793Z,1003.48
2022-10-09T07:07:56.784Z,1003.56
2022-10-09T07:08:56.787Z,1003.47
2022-10-09T07:09:56.767Z,1003.47
2022-10-09T07:10:56.787Z,1003.45
2022-10-09T07:11:56.763Z,1003.48
2022-10-09T07:12:56.759Z,1003.51
2022-10-09T07:13:56.778Z,1003.49
2022-10-09T07:14:56.747Z,1003.51
2022-10-09T07:15:58.036Z,1003.48
2022-10-09T07:16:56.732Z,1003.50
2022-10-09T07:17:56.722Z,1003.42
2022-10-09T07:18:56.717Z,1003.49
2022-10-09T07:19:56.721Z,1003.44
2022-10-09T07:20:56.704Z,1003.47
2022-10-09T07:21:56.690Z,1003.47
2022-10-09T07:22:56.696Z,1003.49
2022-10-09T07:23:56.689Z,1003.45
2022-10-09T07:24:56.673Z,1003.45
2022-10-09T07:25:56.676Z,1003.49
2022-10-09T07:26:56.676Z,1003.54
2022-10-09T07:27:56.654Z,1003.51
2022-10-09T07:28:56.674Z,1003.57
2022-10-09T07:29:56.667Z,1003.49
2022-10-09T07:30:56.689Z,1003.54
2022-10-09T07:31:56.631Z,1003.53
2022-10-09T07:32:56.631Z,1003.54
2022-10-09T07:33:56.621Z,1003.53
2022-10-09T07:34:56.695Z,1003.52
2022-10-09T07:35:56.615Z,1003.46
2022-10-09T07:36:56.591Z,1003.47
2022-10-09T07:37:56.583Z,1003.53
2022-10-09T07:38:56.586Z,1003.50
2022-10-09T07:39:56.569Z,1003.47
2022-10-09T07:40:56.581Z,1003.44
2022-10-09T07:41:56.567Z,1003.46
2022-10-09T07:42:56.561Z,1003.45
2022-10-09T07:43:56.545Z,1003.50
2022-10-09T07:44:56.543Z,1003.46
2022-10-09T07:45:56.575Z,1003.56
2022-10-09T07:46:56.530Z,1003.51
2022-10-09T07:47:56.527Z,1003.55
2022-10-09T07:48:56.515Z,1003.52
2022-10-09T07:49:56.505Z,1003.49
2022-10-09T07:50:56.526Z,1003.45
2022-10-09T07:51:56.505Z,1003.48
2022-10-09T07:52:56.486Z,1003.46
2022-10-09T07:53:56.483Z,1003.48
2022-10-09T07:54:56.474Z,1003.51
2022-10-09T07:55:56.490Z,1003.44
2022-10-09T07:56:56.463Z,1003.42
2022-10-09T07:57:56.568Z,1003.40
2022-10-09T07:58:56.433Z,1003.35
2022-10-09T07:59:57.434Z,1003.43
2022-10-09T08:00:56.421Z,1003.40
2022-10-09T08:01:56.475Z,1003.35
2022-10-09T08:02:56.505Z,1003.38
2022-10-09T08:03:56.416Z,1003.40
2022-10-09T08:04:56.405Z,1003.31
2022-10-09T08:05:56.407Z,1003.35
2022-10-09T08:06:56.427Z,1003.38
2022-10-09T08:07:56.376Z,1003.38
2022-10-09T08:08:56.386Z,1003.31
2022-10-09T08:09:56.374Z,1003.33
2022-10-09T08:10:56.366Z,1003.25
2022-10-09T08:11:56.371Z,1003.29
2022-10-09T08:12:56.354Z,1003.33
2022-10-09T08:13:56.373Z,1003.30
2022-10-09T08:14:56.348Z,1003.30
2022-10-09T08:15:56.400Z,1003.32
2022-10-09T08:16:56.347Z,1003.31
2022-10-09T08:17:56.343Z,1003.36
2022-10-09T08:18:56.921Z,1003.27
2022-10-09T08:19:56.307Z,1003.29
2022-10-09T08:20:56.299Z,1003.18
2022-10-09T08:21:59.088Z,1003.25
2022-10-09T08:22:57.307Z,1003.21
2022-10-09T08:23:56.275Z,1003.14
2022-10-09T08:24:56.268Z,1003.22
2022-10-09T08:25:56.267Z,1003.14
2022-10-09T08:26:56.384Z,1003.12
2022-10-09T08:27:57.971Z,1003.14
2022-10-09T08:28:56.310Z,1003.07
2022-10-09T08:29:57.099Z,1003.16
2022-10-09T08:30:56.390Z,1003.11
2022-10-09T08:31:56.219Z,1003.10
2022-10-09T08:32:56.242Z,1003.14
2022-10-09T08:33:56.203Z,1003.12
2022-10-09T08:34:57.204Z,1003.17
2022-10-09T08:35:56.204Z,1003.11
2022-10-09T08:36:56.192Z,1003.11
2022-10-09T08:37:56.203Z,1003.06
2022-10-09T08:38:56.183Z,1002.99
2022-10-09T08:39:56.175Z,1003.06
2022-10-09T08:40:58.236Z,1003.02
2022-10-09T08:41:57.168Z,1002.97
2022-10-09T08:42:56.155Z,1003.05
2022-10-09T08:43:56.175Z,1003.01
2022-10-09T08:44:56.151Z,1003.00
2022-10-09T08:45:56.189Z,1002.95
2022-10-09T08:46:56.133Z,1002.91
2022-10-09T08:47:56.138Z,1002.89
2022-10-09T08:48:56.123Z,1002.90
2022-10-09T08:49:56.107Z,1002.90
2022-10-09T08:50:56.108Z,1002.88
2022-10-09T08:51:56.099Z,1002.86
2022-10-09T08:52:56.858Z,1002.88
2022-10-09T08:53:56.139Z,1002.84
2022-10-09T08:54:56.077Z,1002.79
2022-10-09T08:55:56.063Z,1002.74
2022-10-09T08:56:56.050Z,1002.73
2022-10-09T08:57:56.041Z,1002.80
2022-10-09T08:58:56.054Z,1002.78
2022-10-09T08:59:56.038Z,1002.76
2022-10-09T09:00:56.035Z,1002.75
2022-10-09T09:01:56.074Z,1002.76
2022-10-09T09:02:56.026Z,1002.68
2022-10-09T09:03:56.011Z,1002.71
2022-10-09T09:04:56.027Z,1002.79
2022-10-09T09:05:55.998Z,1002.65
2022-10-09T09:06:55.986Z,1002.73
2022-10-09T09:07:55.990Z,1002.78
2022-10-09T09:08:55.971Z,1002.73
2022-10-09T09:09:55.990Z,1002.72
2022-10-09T09:10:55.963Z,1002.73
2022-10-09T09:11:55.963Z,1002.65
2022-10-09T09:12:55.944Z,1002.74
2022-10-09T09:13:55.943Z,1002.68
2022-10-09T09:14:56.005Z,1002.67
2022-10-09T09:15:55.953Z,1002.65
2022-10-09T09:16:55.924Z,1002.66
2022-10-09T09:17:55.917Z,1002.68
2022-10-09T09:18:55.914Z,1002.58
2022-10-09T09:19:55.907Z,1002.69
2022-10-09T09:20:55.910Z,1002.63
2022-10-09T09:21:55.940Z,1002.64
2022-10-09T09:22:55.930Z,1002.61
2022-10-09T09:23:55.887Z,1002.57
2022-10-09T09:24:55.997Z,1002.51
2022-10-09T09:25:55.887Z,1002.56
2022-10-09T09:26:55.914Z,1002.55
2022-10-09T09:27:55.863Z,1002.58
2022-10-09T09:28:55.988Z,1002.51
2022-10-09T09:29:55.856Z,1002.53
2022-10-09T09:30:55.883Z,1002.57
2022-10-09T09:31:55.868Z,1002.50
2022-10-09T09:32:55.989Z,1002.54
2022-10-09T09:33:55.863Z,1002.51
2022-10-09T09:34:55.820Z,1002.48
2022-10-09T09:35:55.828Z,1002.45
2022-10-09T09:36:55.826Z,1002.45
2022-10-09T09:37:55.831Z,1002.42
2022-10-09T09:39:54.241Z,1002.42
2022-10-09T09:40:57.782Z,1002.35
2022-10-09T09:41:55.768Z,1002.35
2022-10-09T09:42:55.755Z,1002.23
2022-10-09T09:43:55.747Z,1002.24
2022-10-09T09:44:55.743Z,1002.14
2022-10-09T09:45:55.760Z,1002.03
2022-10-09T09:46:55.811Z,1002.02
2022-10-09T09:47:55.734Z,1001.98
2022-10-09T09:48:55.890Z,1001.96
2022-10-09T09:49:56.480Z,1001.94
2022-10-09T09:51:16.193Z,1001.88
2022-10-09T09:51:57.755Z,1001.88
2022-10-09T09:52:55.778Z,1001.81
2022-10-09T09:53:55.703Z,1001.79
2022-10-09T09:54:55.730Z,1001.82
2022-10-09T09:55:55.697Z,1001.73
2022-10-09T09:57:14.906Z,1001.63
2022-10-09T09:57:57.787Z,1001.66
2022-10-09T09:58:56.422Z,1001.57
2022-10-09T09:59:56.423Z,1001.50
2022-10-09T10:00:55.915Z,1001.52
2022-10-09T10:01:55.767Z,1001.45
2022-10-09T10:02:55.675Z,1001.48
2022-10-09T10:03:55.799Z,1001.49
2022-10-09T10:04:55.688Z,1001.49
2022-10-09T10:05:55.667Z,1001.48
2022-10-09T10:06:55.624Z,1001.42
2022-10-09T10:07:55.607Z,1001.38
2022-10-09T10:08:55.804Z,1001.36
2022-10-09T10:09:55.659Z,1001.34
2022-10-09T10:10:55.628Z,1001.30
2022-10-09T10:11:55.640Z,1001.30
2022-10-09T10:12:55.587Z,1001.25
2022-10-09T10:13:55.583Z,1001.23
2022-10-09T10:14:55.568Z,1001.22
2022-10-09T10:15:55.665Z,1001.19
2022-10-09T10:16:55.594Z,1001.18
2022-10-09T10:17:55.595Z,1001.16
2022-10-09T10:18:55.590Z,1001.18
2022-10-09T10:19:55.557Z,1001.12
2022-10-09T10:20:55.575Z,1001.13
2022-10-09T10:21:55.543Z,1001.03
2022-10-09T10:22:55.557Z,1001.05
2022-10-09T10:23:55.556Z,1001.08
2022-10-09T10:24:55.579Z,1000.97
2022-10-09T10:25:55.519Z,1001.05
2022-10-09T10:26:55.527Z,1001.00
2022-10-09T10:27:55.545Z,1001.00
2022-10-09T10:28:55.533Z,1000.95
2022-10-09T10:29:55.514Z,1000.95
2022-10-09T10:30:55.513Z,1000.98
2022-10-09T10:31:55.513Z,1000.98
2022-10-09T10:32:55.481Z,1001.00
2022-10-09T10:33:55.470Z,1000.96
2022-10-09T10:34:55.509Z,1000.89
2022-10-09T10:35:55.499Z,1000.85
2022-10-09T10:36:58.540Z,1000.85
2022-10-09T10:37:56.442Z,1000.84
2022-10-09T10:38:55.484Z,1000.81
2022-10-09T10:39:55.453Z,1000.78
2022-10-09T10:40:55.442Z,1000.79
2022-10-09T10:41:56.357Z,1000.78
2022-10-09T10:42:58.669Z,1000.77
2022-10-09T10:43:56.456Z,1000.73
2022-10-09T10:44:55.442Z,1000.72
2022-10-09T10:45:55.444Z,1000.74
2022-10-09T10:46:55.616Z,1000.70
2022-10-09T10:47:55.432Z,1000.71
2022-10-09T10:48:55.409Z,1000.69
2022-10-09T10:49:55.401Z,1000.60
2022-10-09T10:50:55.397Z,1000.65
2022-10-09T10:51:55.399Z,1000.65
2022-10-09T10:52:55.417Z,1000.63
2022-10-09T10:53:55.395Z,1000.61
2022-10-09T10:54:55.378Z,1000.56
2022-10-09T10:55:55.378Z,1000.63
2022-10-09T10:56:55.384Z,1000.61
2022-10-09T10:57:55.393Z,1000.59
2022-10-09T10:58:56.477Z,1000.57
2022-10-09T10:59:55.365Z,1000.58
2022-10-09T11:00:55.418Z,1000.54
2022-10-09T11:01:55.343Z,1000.53
2022-10-09T11:02:55.795Z,1000.50
2022-10-09T11:03:55.349Z,1000.48
2022-10-09T11:04:55.540Z,1000.48
2022-10-09T11:05:55.331Z,1000.44
2022-10-09T11:06:55.325Z,1000.41
2022-10-09T11:07:59.102Z,1000.34
2022-10-09T11:08:56.318Z,1000.36
2022-10-09T11:09:55.341Z,1000.31
2022-10-09T11:10:55.314Z,1000.33
2022-10-09T11:11:55.309Z,1000.31
2022-10-09T11:12:55.321Z,1000.19
2022-10-09T11:13:55.300Z,1000.26
2022-10-09T11:14:55.293Z,1000.24
2022-10-09T11:15:55.327Z,1000.20
2022-10-09T11:16:55.288Z,1000.11
2022-10-09T11:17:55.309Z,1000.11
2022-10-09T11:18:55.278Z,1000.17
2022-10-09T11:19:55.281Z,1000.12
2022-10-09T11:20:55.316Z,1000.10
2022-10-09T11:21:55.260Z,1000.13
2022-10-09T11:22:55.266Z,1000.10
2022-10-09T11:23:55.240Z,1000.09
2022-10-09T11:24:55.249Z,1000.06
2022-10-09T11:25:55.248Z,1000.02
2022-10-09T11:26:57.546Z,1000.03
2022-10-09T11:27:56.258Z,999.95
2022-10-09T11:28:55.249Z,999.95
2022-10-09T11:29:55.213Z,999.92
2022-10-09T11:30:55.216Z,999.98
2022-10-09T11:31:55.298Z,999.93
2022-10-09T11:32:55.214Z,999.94
2022-10-09T11:33:55.214Z,999.92
2022-10-09T11:34:55.206Z,999.96
2022-10-09T11:35:55.205Z,999.93
2022-10-09T11:36:55.192Z,999.93
2022-10-09T11:37:55.184Z,999.91
2022-10-09T11:38:55.192Z,999.86
2022-10-09T11:39:55.176Z,999.90
2022-10-09T11:40:55.171Z,999.93
2022-10-09T11:41:55.169Z,999.93
2022-10-09T11:42:55.165Z,999.81
2022-10-09T11:43:55.180Z,999.86
2022-10-09T11:44:55.162Z,999.82
2022-10-09T11:45:55.226Z,999.84
2022-10-09T11:46:55.155Z,999.81
2022-10-09T11:47:55.140Z,999.92
2022-10-09T11:48:55.144Z,999.81
2022-10-09T11:49:55.160Z,999.80
2022-10-09T11:50:55.129Z,999.80
2022-10-09T11:51:55.124Z,999.78
2022-10-09T11:52:55.121Z,999.80
2022-10-09T11:53:55.127Z,999.72
2022-10-09T11:54:55.163Z,999.73
2022-10-09T11:55:55.135Z,999.65
2022-10-09T11:56:55.132Z,999.75
2022-10-09T11:57:55.140Z,999.67
2022-10-09T11:58:55.168Z,999.72
2022-10-09T11:59:55.167Z,999.72
2022-10-09T12:00:55.173Z,999.68
2022-10-09T12:01:55.153Z,999.66
2022-10-09T12:02:55.115Z,999.68
2022-10-09T12:03:58.745Z,999.73
2022-10-09T12:04:57.204Z,999.67
2022-10-09T12:05:55.064Z,999.68
2022-10-09T12:06:55.051Z,999.68
2022-10-09T12:07:55.055Z,999.79
2022-10-09T12:08:55.045Z,999.69